CAA9 weather

Port Alberni/Sproat Lake Seaplane Base
Sproat Lake, British Columbia, Canada

Public forecast

Using degrees Celsius for public forecast. Weather courtesy of forecast.io.

METAR (pilot weather report)

Closest report is Comox Airport, 25.4 nm (47.0 km) N. Retrieved 2019/09/17 05:00 UTC (18 minutes ago):

CYQQ 170500Z 14014G19KT 20SM FEW015 SCT056 OVC072 14/13 A2974 RMK SF1SC4AC4 SLP070

TAF (pilot weather forecast)

Forecast is more than 12 hours old.

Closest forecast is Comox Airport, 25.4 nm (47.0 km) N. Retrieved 2019/09/16 00:42 UTC (1 day ago):

TAF CYQQ 162339Z 1700/1724 14010KT P6SM FEW015 SCT030 BKN080 FM170300 14012KT P6SM FEW015 BKN030 TEMPO 1705/1708 P6SM -SHRA FM170900 14020G30KT P6SM -RA SCT012 OVC030 TEMPO 1711/1724 4SM -SHRA BR BKN012 BECMG 1718/1720 14012KT RMK NXT FCST BY 170600Z